createdAt,value
2024-02-26T00:00:49.842Z,72.82
2024-02-26T00:03:16.519Z,73.57
2024-02-26T00:05:43.753Z,73.04
2024-02-26T00:08:10.757Z,73.25
2024-02-26T00:10:37.628Z,72.86
2024-02-26T00:13:04.054Z,72.61
2024-02-26T00:15:30.491Z,73.20
2024-02-26T00:17:58.992Z,73.12
2024-02-26T00:20:25.561Z,73.04
2024-02-26T00:22:52.816Z,72.65
2024-02-26T00:25:19.396Z,72.70
2024-02-26T00:27:45.943Z,72.35
2024-02-26T00:30:12.912Z,72.79
2024-02-26T00:32:39.437Z,73.02
2024-02-26T00:35:07.087Z,73.53
2024-02-26T00:37:33.572Z,72.97
2024-02-26T00:40:00.721Z,73.18
2024-02-26T00:42:27.357Z,73.23
2024-02-26T00:44:53.774Z,73.98
2024-02-26T00:47:20.177Z,73.89
2024-02-26T00:49:47.033Z,74.18
2024-02-26T00:52:13.636Z,74.84
2024-02-26T00:54:40.021Z,74.86
2024-02-26T00:57:07.512Z,74.22
2024-02-26T00:59:33.934Z,74.33
2024-02-26T01:02:02.608Z,74.60
2024-02-26T01:04:29.433Z,74.39
2024-02-26T01:06:55.801Z,74.61
2024-02-26T01:09:22.275Z,74.57
2024-02-26T01:11:48.814Z,74.45
2024-02-26T01:14:15.979Z,74.73
2024-02-26T01:16:42.418Z,74.42
2024-02-26T01:19:08.920Z,74.22
2024-02-26T01:21:35.477Z,73.96
2024-02-26T01:24:01.994Z,74.08
2024-02-26T01:26:28.463Z,74.82
2024-02-26T01:28:55.976Z,74.50
2024-02-26T01:31:23.057Z,74.09
2024-02-26T01:33:49.784Z,74.33
2024-02-26T01:36:16.370Z,74.33
2024-02-26T01:38:42.934Z,74.62
2024-02-26T01:41:09.343Z,75.03
2024-02-26T01:43:35.799Z,74.35
2024-02-26T01:46:02.347Z,74.70
2024-02-26T01:48:29.572Z,74.26
2024-02-26T01:50:56.120Z,74.73
2024-02-26T01:53:22.800Z,74.67
2024-02-26T01:55:49.215Z,74.45
2024-02-26T01:58:15.783Z,74.93
2024-02-26T02:00:42.703Z,74.31
2024-02-26T02:03:09.704Z,74.55
2024-02-26T02:05:42.056Z,74.50
2024-02-26T02:08:08.718Z,74.29
2024-02-26T02:10:35.564Z,74.86
2024-02-26T02:13:01.787Z,74.68
2024-02-26T02:15:28.299Z,74.44
2024-02-26T02:17:54.869Z,75.02
2024-02-26T02:20:25.467Z,74.35
2024-02-26T02:22:51.875Z,74.83
2024-02-26T02:25:18.301Z,74.78
2024-02-26T02:27:44.842Z,74.44
2024-02-26T02:30:12.350Z,74.54
2024-02-26T02:32:40.261Z,74.65
2024-02-26T02:35:07.296Z,74.07
2024-02-26T02:37:34.645Z,75.02
2024-02-26T02:40:01.069Z,74.78
2024-02-26T02:42:27.689Z,75.00
2024-02-26T02:44:54.140Z,75.04
2024-02-26T02:47:20.515Z,74.96
2024-02-26T02:49:46.972Z,74.94
2024-02-26T02:52:13.358Z,74.62
2024-02-26T02:54:42.204Z,74.54
2024-02-26T02:57:08.992Z,74.87
2024-02-26T02:59:35.821Z,74.80
2024-02-26T03:02:02.017Z,74.09
2024-02-26T03:04:29.761Z,74.54
2024-02-26T03:06:56.293Z,74.59
2024-02-26T03:09:23.963Z,74.57
2024-02-26T03:11:51.087Z,74.31
2024-02-26T03:14:17.557Z,75.00
2024-02-26T03:16:44.088Z,75.25
2024-02-26T03:19:10.516Z,74.68
2024-02-26T03:21:36.925Z,74.67
2024-02-26T03:24:03.671Z,74.69
2024-02-26T03:26:31.704Z,74.60
2024-02-26T03:28:58.701Z,74.63
2024-02-26T03:31:25.090Z,75.35
2024-02-26T03:33:51.596Z,75.01
2024-02-26T03:36:18.076Z,75.59
2024-02-26T03:38:44.519Z,75.77
2024-02-26T03:41:10.990Z,76.06
2024-02-26T03:43:37.369Z,75.78
2024-02-26T03:46:04.532Z,76.33
2024-02-26T03:48:31.014Z,76.48
2024-02-26T03:50:57.594Z,77.25
2024-02-26T03:53:24.052Z,76.46
2024-02-26T03:55:52.366Z,77.04
2024-02-26T03:58:18.790Z,77.70
2024-02-26T04:00:45.284Z,78.79
2024-02-26T04:03:12.416Z,80.13
2024-02-26T04:05:38.839Z,80.48
2024-02-26T04:08:07.505Z,80.20
2024-02-26T04:10:35.350Z,81.96
2024-02-26T04:13:01.741Z,81.99
2024-02-26T04:15:28.543Z,83.64
2024-02-26T04:17:55.033Z,84.16
2024-02-26T04:20:22.407Z,85.31
2024-02-26T04:22:48.756Z,84.17
2024-02-26T04:25:15.403Z,84.29
2024-02-26T04:27:41.829Z,86.47
2024-02-26T04:30:09.267Z,86.72
2024-02-26T04:32:36.011Z,86.83
2024-02-26T04:35:03.477Z,85.93
2024-02-26T04:37:31.336Z,86.83
2024-02-26T04:39:59.016Z,86.88
2024-02-26T04:42:25.474Z,87.71
2024-02-26T04:44:51.934Z,87.38
2024-02-26T04:47:18.325Z,86.96
2024-02-26T04:49:44.769Z,86.71
2024-02-26T04:52:10.904Z,86.98
2024-02-26T04:54:38.269Z,87.83
2024-02-26T04:57:05.213Z,87.62
2024-02-26T04:59:31.553Z,88.17
2024-02-26T05:01:57.986Z,88.41
2024-02-26T05:04:24.395Z,87.80
2024-02-26T05:06:51.177Z,88.32
2024-02-26T05:09:17.654Z,88.68
2024-02-26T05:11:44.969Z,88.79
2024-02-26T05:14:11.439Z,88.97
2024-02-26T05:16:37.857Z,89.54
2024-02-26T05:19:04.314Z,89.44
2024-02-26T05:21:30.798Z,89.33
2024-02-26T05:23:57.264Z,89.62
2024-02-26T05:26:23.706Z,89.79
2024-02-26T05:28:51.050Z,90.24
2024-02-26T05:31:18.437Z,90.67
2024-02-26T05:33:44.972Z,90.53
2024-02-26T05:36:11.518Z,90.15
2024-02-26T05:38:37.946Z,90.18
2024-02-26T05:41:05.846Z,91.05
2024-02-26T05:43:32.221Z,91.05
2024-02-26T05:45:59.263Z,91.49
2024-02-26T05:48:25.866Z,92.29
2024-02-26T05:50:52.468Z,91.85
2024-02-26T05:53:18.930Z,91.76
2024-02-26T05:55:45.295Z,92.54
2024-02-26T05:58:11.979Z,91.39
2024-02-26T06:00:38.528Z,91.54
2024-02-26T06:03:05.784Z,92.25
2024-02-26T06:05:32.387Z,92.08
2024-02-26T06:07:58.785Z,92.57
2024-02-26T06:10:25.330Z,92.87
2024-02-26T06:12:51.833Z,92.17
2024-02-26T06:15:18.283Z,92.30
2024-02-26T06:17:44.798Z,91.90
2024-02-26T06:20:13.506Z,91.61
2024-02-26T06:22:40.811Z,91.77
2024-02-26T06:25:08.014Z,91.50
2024-02-26T06:27:34.961Z,91.62
2024-02-26T06:30:01.228Z,92.25
2024-02-26T06:32:28.638Z,92.11
2024-02-26T06:34:55.462Z,91.69
2024-02-26T06:37:22.580Z,91.75
2024-02-26T06:39:49.002Z,91.47
2024-02-26T06:42:15.454Z,91.80
2024-02-26T06:44:41.896Z,92.20
2024-02-26T06:47:08.253Z,91.62
2024-02-26T06:49:34.905Z,91.72
2024-02-26T06:52:01.578Z,91.91
2024-02-26T06:54:29.223Z,91.42
2024-02-26T06:56:56.377Z,91.46
2024-02-26T06:59:24.404Z,91.11
2024-02-26T07:01:51.566Z,91.09
2024-02-26T07:04:18.402Z,90.54
2024-02-26T07:06:47.063Z,90.32
2024-02-26T07:09:13.991Z,90.08
2024-02-26T07:11:42.318Z,90.38
2024-02-26T07:14:08.738Z,90.28
2024-02-26T07:16:35.236Z,90.25
2024-02-26T07:19:01.841Z,89.82
2024-02-26T07:21:28.276Z,90.31
2024-02-26T07:23:54.742Z,90.45
2024-02-26T07:26:21.135Z,89.86
2024-02-26T07:28:48.191Z,90.68
2024-02-26T07:31:14.630Z,90.11
2024-02-26T07:33:41.325Z,90.42
2024-02-26T07:36:07.958Z,90.59
2024-02-26T07:38:42.501Z,90.14
2024-02-26T07:41:10.484Z,90.49
2024-02-26T07:43:36.984Z,90.39
2024-02-26T07:46:04.574Z,90.75
2024-02-26T07:48:31.570Z,90.73
2024-02-26T07:50:59.520Z,91.04
2024-02-26T07:53:25.943Z,91.46
2024-02-26T07:55:52.487Z,91.22
2024-02-26T07:58:18.949Z,90.83
2024-02-26T08:00:46.931Z,90.90
2024-02-26T08:03:16.232Z,91.12
2024-02-26T08:05:43.645Z,91.15
2024-02-26T08:08:10.238Z,91.03
2024-02-26T08:10:36.683Z,91.45
2024-02-26T08:13:05.695Z,91.43
2024-02-26T08:15:32.964Z,91.56
2024-02-26T08:18:01.126Z,91.24
2024-02-26T08:20:29.056Z,91.18
2024-02-26T08:22:55.745Z,91.79
2024-02-26T08:25:22.218Z,91.87
2024-02-26T08:27:48.595Z,91.71
2024-02-26T08:30:17.418Z,91.83
2024-02-26T08:32:43.987Z,91.97
2024-02-26T08:35:10.674Z,92.01
2024-02-26T08:37:37.795Z,92.08
2024-02-26T08:40:07.095Z,91.92
2024-02-26T08:42:34.627Z,91.72
2024-02-26T08:45:01.867Z,91.84
2024-02-26T08:47:28.885Z,92.32
2024-02-26T08:49:55.388Z,91.75
2024-02-26T08:52:23.493Z,92.13
2024-02-26T08:54:50.568Z,92.32
2024-02-26T08:57:17.078Z,92.37
2024-02-26T08:59:43.687Z,92.14
2024-02-26T09:02:10.237Z,92.34
2024-02-26T09:04:36.906Z,91.70
2024-02-26T09:07:04.170Z,91.85
2024-02-26T09:09:30.572Z,92.06
2024-02-26T09:11:57.740Z,92.02
2024-02-26T09:14:26.714Z,91.74
2024-02-26T09:16:54.708Z,91.91
2024-02-26T09:19:21.250Z,91.75
2024-02-26T09:21:47.870Z,91.90
2024-02-26T09:24:15.262Z,91.54
2024-02-26T09:26:41.644Z,91.38
2024-02-26T09:29:09.124Z,91.82
2024-02-26T09:31:35.579Z,91.83
2024-02-26T09:34:02.987Z,91.97
2024-02-26T09:36:29.862Z,92.37
2024-02-26T09:39:00.704Z,91.80
2024-02-26T09:41:29.392Z,91.86
2024-02-26T09:43:57.886Z,92.44
2024-02-26T09:46:26.231Z,92.16
2024-02-26T09:48:52.901Z,92.18
2024-02-26T09:51:19.621Z,92.11
2024-02-26T09:53:47.774Z,92.40
2024-02-26T09:56:16.591Z,92.46
2024-02-26T09:58:43.457Z,92.26
2024-02-26T10:01:12.824Z,91.97
2024-02-26T10:03:42.181Z,92.03
2024-02-26T10:06:08.685Z,92.83
2024-02-26T10:08:37.355Z,92.55
2024-02-26T10:11:04.636Z,92.80
2024-02-26T10:13:31.253Z,92.60
2024-02-26T10:15:59.096Z,92.74
2024-02-26T10:18:25.778Z,92.28
2024-02-26T10:21:02.540Z,92.61
2024-02-26T10:23:29.057Z,92.27
2024-02-26T10:25:55.926Z,92.00
2024-02-26T10:28:22.251Z,91.77
2024-02-26T10:30:48.804Z,91.04
2024-02-26T10:33:15.638Z,91.95
2024-02-26T10:35:46.038Z,92.14
2024-02-26T10:38:13.154Z,92.10
2024-02-26T10:40:39.497Z,91.67
2024-02-26T10:43:06.216Z,92.08
2024-02-26T10:45:36.646Z,91.78
2024-02-26T10:48:05.326Z,91.88
2024-02-26T10:50:31.868Z,91.34
2024-02-26T10:52:58.465Z,91.70
2024-02-26T10:55:25.800Z,91.58
2024-02-26T10:57:53.591Z,91.00
2024-02-26T11:00:20.167Z,90.96
2024-02-26T11:02:47.073Z,90.35
2024-02-26T11:05:14.544Z,90.87
2024-02-26T11:07:42.517Z,90.27
2024-02-26T11:10:11.795Z,90.55
2024-02-26T11:12:40.162Z,90.02
2024-02-26T11:15:07.221Z,90.23
2024-02-26T11:17:34.749Z,90.84
2024-02-26T11:20:02.723Z,90.27
2024-02-26T11:22:29.502Z,89.84
2024-02-26T11:24:57.974Z,90.03
2024-02-26T11:27:26.803Z,89.57
2024-02-26T11:29:54.616Z,88.99
2024-02-26T11:32:21.062Z,88.79
2024-02-26T11:34:49.254Z,89.30
2024-02-26T11:37:16.604Z,89.00
2024-02-26T11:39:43.495Z,89.13
2024-02-26T11:42:11.386Z,89.08
2024-02-26T11:44:37.880Z,89.26
2024-02-26T11:47:14.884Z,89.96
2024-02-26T11:49:41.564Z,90.22
2024-02-26T11:52:09.210Z,88.67
2024-02-26T11:54:40.060Z,88.69
2024-02-26T11:57:21.221Z,89.67
2024-02-26T11:59:48.362Z,89.61
2024-02-26T12:02:39.269Z,90.59
2024-02-26T12:05:08.322Z,90.02
2024-02-26T12:07:35.734Z,89.69
2024-02-26T12:10:16.353Z,89.68
2024-02-26T12:12:43.147Z,89.61
2024-02-26T12:15:09.609Z,89.56
2024-02-26T12:17:36.967Z,89.55
2024-02-26T12:20:10.470Z,89.63
2024-02-26T12:22:37.443Z,88.29
2024-02-26T12:25:03.963Z,87.80
2024-02-26T12:27:30.467Z,88.62
2024-02-26T12:29:57.020Z,87.71
2024-02-26T12:32:24.233Z,87.48
2024-02-26T12:34:51.416Z,87.07
2024-02-26T12:37:18.069Z,87.07
2024-02-26T12:39:44.575Z,86.62
2024-02-26T12:42:11.111Z,86.67
2024-02-26T12:44:38.200Z,86.05
2024-02-26T12:47:05.926Z,86.62
2024-02-26T12:49:33.090Z,86.96
2024-02-26T12:52:01.983Z,85.75
2024-02-26T12:54:28.725Z,85.43
2024-02-26T12:56:55.443Z,86.28
2024-02-26T12:59:22.052Z,85.86
2024-02-26T13:01:49.209Z,85.64
2024-02-26T13:04:16.180Z,85.03
2024-02-26T13:06:42.826Z,84.82
2024-02-26T13:09:13.774Z,84.64
2024-02-26T13:11:40.553Z,84.65
2024-02-26T13:14:08.868Z,84.49
2024-02-26T13:16:36.051Z,84.24
2024-02-26T13:19:09.772Z,83.78
2024-02-26T13:21:36.243Z,84.25
2024-02-26T13:24:03.100Z,83.57
2024-02-26T13:26:31.147Z,83.51
2024-02-26T13:29:01.782Z,83.20
2024-02-26T13:31:28.193Z,83.65
2024-02-26T13:33:56.075Z,83.94
2024-02-26T13:36:22.816Z,83.71
2024-02-26T13:38:52.684Z,83.36
2024-02-26T13:41:19.147Z,82.50
2024-02-26T13:43:46.262Z,82.72
2024-02-26T13:46:14.361Z,83.28
2024-02-26T13:48:40.855Z,82.80
2024-02-26T13:51:07.354Z,83.17
2024-02-26T13:53:35.577Z,81.97
2024-02-26T13:56:04.595Z,81.98
2024-02-26T13:58:31.160Z,82.64
2024-02-26T14:01:02.648Z,82.88
2024-02-26T14:03:29.218Z,82.61
2024-02-26T14:05:57.289Z,82.25
2024-02-26T14:08:24.663Z,82.55
2024-02-26T14:10:51.329Z,82.62
2024-02-26T14:13:17.764Z,82.04
2024-02-26T14:15:44.231Z,81.92
2024-02-26T14:18:11.522Z,81.79
2024-02-26T14:20:39.142Z,81.41
2024-02-26T14:23:05.647Z,80.76
2024-02-26T14:25:32.125Z,81.67
2024-02-26T14:27:59.166Z,80.72
2024-02-26T14:30:26.228Z,80.88
2024-02-26T14:32:52.850Z,81.17
2024-02-26T14:35:20.082Z,80.99
2024-02-26T14:37:48.775Z,80.97
2024-02-26T14:40:15.435Z,81.25
2024-02-26T14:42:42.201Z,81.72
2024-02-26T14:45:09.777Z,81.56
2024-02-26T14:47:36.316Z,81.13
2024-02-26T14:50:03.121Z,81.65
2024-02-26T14:52:30.418Z,81.33
2024-02-26T14:54:57.583Z,80.81
2024-02-26T14:57:24.866Z,81.25
2024-02-26T14:59:51.562Z,81.32
2024-02-26T15:02:17.966Z,81.28
2024-02-26T15:04:44.887Z,81.89
2024-02-26T15:07:14.796Z,82.54
2024-02-26T15:09:43.215Z,81.99
2024-02-26T15:12:10.804Z,82.42
2024-02-26T15:14:37.285Z,83.04
2024-02-26T15:17:04.217Z,82.51
2024-02-26T15:19:30.709Z,82.52
2024-02-26T15:21:57.422Z,82.65
2024-02-26T15:24:23.884Z,82.85
2024-02-26T15:26:52.064Z,83.85
2024-02-26T15:29:18.509Z,83.33
2024-02-26T15:31:44.931Z,83.41
2024-02-26T15:34:12.695Z,83.39
2024-02-26T15:36:39.394Z,83.20
2024-02-26T15:39:07.733Z,84.29
2024-02-26T15:41:34.172Z,84.39
2024-02-26T15:44:01.210Z,84.31
2024-02-26T15:46:27.762Z,84.84
2024-02-26T15:48:54.371Z,84.35
2024-02-26T15:51:22.030Z,84.11
2024-02-26T15:53:49.404Z,84.62
2024-02-26T15:56:15.931Z,84.89
2024-02-26T15:58:42.286Z,84.64
2024-02-26T16:01:15.254Z,84.97
2024-02-26T16:03:46.399Z,85.44
2024-02-26T16:06:19.541Z,85.27
2024-02-26T16:08:48.411Z,85.08
2024-02-26T16:11:14.910Z,85.58
2024-02-26T16:13:41.396Z,85.51
2024-02-26T16:16:14.881Z,85.95
2024-02-26T16:18:41.258Z,85.37
2024-02-26T16:21:07.963Z,85.85
2024-02-26T16:23:38.689Z,85.43
2024-02-26T16:26:05.404Z,85.12
2024-02-26T16:28:32.404Z,85.17
2024-02-26T16:30:58.825Z,85.59
2024-02-26T16:33:26.244Z,85.50
2024-02-26T16:35:52.903Z,85.62
2024-02-26T16:38:19.381Z,85.56
2024-02-26T16:40:45.859Z,85.17
2024-02-26T16:43:12.218Z,85.49
2024-02-26T16:45:38.805Z,85.58
2024-02-26T16:48:05.807Z,85.34
2024-02-26T16:50:32.900Z,85.91
2024-02-26T16:52:59.340Z,86.17
2024-02-26T16:55:27.629Z,85.79
2024-02-26T16:57:55.869Z,85.61
2024-02-26T17:00:22.721Z,85.93
2024-02-26T17:02:50.042Z,86.00
2024-02-26T17:05:17.374Z,86.00
2024-02-26T17:07:46.108Z,86.33
2024-02-26T17:10:13.348Z,85.41
2024-02-26T17:12:39.944Z,86.01
2024-02-26T17:15:07.685Z,86.00
2024-02-26T17:17:35.445Z,85.20
2024-02-26T17:20:02.295Z,85.38
2024-02-26T17:22:28.918Z,85.11
2024-02-26T17:24:56.078Z,84.37
2024-02-26T17:27:22.966Z,85.28
2024-02-26T17:29:49.522Z,84.68
2024-02-26T17:32:16.698Z,84.79
2024-02-26T17:34:43.418Z,84.55
2024-02-26T17:37:10.140Z,85.01
2024-02-26T17:39:36.767Z,84.91
2024-02-26T17:42:04.270Z,84.31
2024-02-26T17:44:35.118Z,84.45
2024-02-26T17:47:01.994Z,84.80
2024-02-26T17:49:28.529Z,84.80
2024-02-26T17:51:55.268Z,84.25
2024-02-26T17:54:21.712Z,84.04
2024-02-26T17:56:48.146Z,84.60
2024-02-26T17:59:15.872Z,83.96
2024-02-26T18:01:42.681Z,84.41
2024-02-26T18:04:09.131Z,84.39
2024-02-26T18:06:35.864Z,84.20
2024-02-26T18:09:02.458Z,83.81
2024-02-26T18:11:28.994Z,84.03
2024-02-26T18:13:57.006Z,83.53
2024-02-26T18:16:24.245Z,84.01
2024-02-26T18:18:51.022Z,83.50
2024-02-26T18:21:18.653Z,84.31
2024-02-26T18:23:45.236Z,84.02
2024-02-26T18:26:12.007Z,84.01
2024-02-26T18:28:38.532Z,84.37
2024-02-26T18:31:04.947Z,83.90
2024-02-26T18:33:33.627Z,83.60
2024-02-26T18:36:01.001Z,83.63
2024-02-26T18:38:28.112Z,83.37
2024-02-26T18:40:54.761Z,83.37
2024-02-26T18:43:21.212Z,83.21
2024-02-26T18:45:47.690Z,83.60
2024-02-26T18:48:14.538Z,83.38
2024-02-26T18:50:42.500Z,83.72
2024-02-26T18:53:09.083Z,83.67
2024-02-26T18:55:35.710Z,83.79
2024-02-26T18:58:03.964Z,83.66
2024-02-26T19:00:30.788Z,83.87
2024-02-26T19:02:57.563Z,84.20
2024-02-26T19:05:26.268Z,84.10
2024-02-26T19:07:58.783Z,84.60
2024-02-26T19:10:25.733Z,84.47
2024-02-26T19:12:52.652Z,84.23
2024-02-26T19:15:20.700Z,84.38
2024-02-26T19:17:47.653Z,84.61
2024-02-26T19:20:16.315Z,84.10
2024-02-26T19:22:42.907Z,85.13
2024-02-26T19:25:10.904Z,84.82
2024-02-26T19:27:37.643Z,84.48
2024-02-26T19:30:05.642Z,84.63
2024-02-26T19:32:32.597Z,84.80
2024-02-26T19:34:59.349Z,84.68
2024-02-26T19:37:26.210Z,85.72
2024-02-26T19:39:54.957Z,86.01
2024-02-26T19:42:22.221Z,85.26
2024-02-26T19:44:48.975Z,86.05
2024-02-26T19:47:15.832Z,85.78
2024-02-26T19:49:42.264Z,86.15
2024-02-26T19:52:09.614Z,86.62
2024-02-26T19:54:37.786Z,86.10
2024-02-26T19:57:06.283Z,86.63
2024-02-26T19:59:33.675Z,86.63
2024-02-26T20:02:00.143Z,86.68
2024-02-26T20:04:26.725Z,86.33
2024-02-26T20:06:53.564Z,87.18
2024-02-26T20:09:22.047Z,86.87
2024-02-26T20:11:48.712Z,87.60
2024-02-26T20:14:15.381Z,87.32
2024-02-26T20:16:42.603Z,88.24
2024-02-26T20:19:11.469Z,87.93
2024-02-26T20:21:40.081Z,88.29
2024-02-26T20:24:07.689Z,88.32
2024-02-26T20:26:35.659Z,87.52
2024-02-26T20:29:02.169Z,88.02
2024-02-26T20:31:28.616Z,87.82
2024-02-26T20:33:55.809Z,88.27
2024-02-26T20:36:22.330Z,88.55
2024-02-26T20:38:49.658Z,88.52
2024-02-26T20:41:16.091Z,88.37
2024-02-26T20:43:42.605Z,88.24
2024-02-26T20:46:09.461Z,88.91
2024-02-26T20:48:36.683Z,88.66
2024-02-26T20:51:04.596Z,88.24
2024-02-26T20:53:31.085Z,88.62
2024-02-26T20:55:58.604Z,88.89
2024-02-26T20:58:25.339Z,88.52
2024-02-26T21:00:52.339Z,88.21
2024-02-26T21:03:18.872Z,88.10
2024-02-26T21:05:45.701Z,88.09
2024-02-26T21:08:20.304Z,88.36
2024-02-26T21:11:00.694Z,88.25
2024-02-26T21:13:27.097Z,88.63
2024-02-26T21:15:53.487Z,88.51
2024-02-26T21:18:20.866Z,88.32
2024-02-26T21:20:47.462Z,87.90
2024-02-26T21:23:14.688Z,88.22
2024-02-26T21:25:41.091Z,87.89
2024-02-26T21:28:07.508Z,88.20
2024-02-26T21:30:34.299Z,87.76
2024-02-26T21:33:01.028Z,88.06
2024-02-26T21:35:28.412Z,88.08
2024-02-26T21:37:55.195Z,88.50
2024-02-26T21:40:22.368Z,88.26
2024-02-26T21:42:49.491Z,88.06
2024-02-26T21:45:20.801Z,88.16
2024-02-26T21:47:47.689Z,88.19
2024-02-26T21:50:14.048Z,87.84
2024-02-26T21:52:40.508Z,88.48
2024-02-26T21:55:08.711Z,88.48
2024-02-26T21:57:35.965Z,88.67
2024-02-26T22:00:02.546Z,88.57
2024-02-26T22:02:29.383Z,88.15
2024-02-26T22:04:55.801Z,88.48
2024-02-26T22:07:23.520Z,88.51
2024-02-26T22:09:51.779Z,88.55
2024-02-26T22:12:18.300Z,88.11
2024-02-26T22:14:45.405Z,87.98
2024-02-26T22:17:12.193Z,87.95
2024-02-26T22:19:38.616Z,88.13
2024-02-26T22:22:05.093Z,88.13
2024-02-26T22:24:32.249Z,87.98
2024-02-26T22:26:58.765Z,88.00
2024-02-26T22:29:26.741Z,88.14
2024-02-26T22:31:56.342Z,87.89
2024-02-26T22:34:24.329Z,88.08
2024-02-26T22:36:50.772Z,88.20
2024-02-26T22:39:17.255Z,87.81
2024-02-26T22:41:45.254Z,87.40
2024-02-26T22:44:11.746Z,87.39
2024-02-26T22:46:38.159Z,87.26
2024-02-26T22:49:06.289Z,87.50
2024-02-26T22:51:32.829Z,86.82
2024-02-26T22:53:59.280Z,86.78
2024-02-26T22:56:25.705Z,86.83
2024-02-26T22:58:52.155Z,86.61
2024-02-26T23:01:18.535Z,87.10
2024-02-26T23:03:45.179Z,86.46
2024-02-26T23:06:12.597Z,86.43
2024-02-26T23:08:39.045Z,86.55
2024-02-26T23:11:05.458Z,86.08
2024-02-26T23:13:32.007Z,86.13
2024-02-26T23:15:58.419Z,86.11
2024-02-26T23:18:25.028Z,86.22
2024-02-26T23:20:51.460Z,85.47
2024-02-26T23:23:19.445Z,85.41
2024-02-26T23:25:45.829Z,86.11
2024-02-26T23:28:12.518Z,85.55
2024-02-26T23:30:39.593Z,85.76
2024-02-26T23:33:06.213Z,85.46
2024-02-26T23:35:32.661Z,85.11
2024-02-26T23:37:59.098Z,85.76
2024-02-26T23:40:26.152Z,85.27
2024-02-26T23:42:53.182Z,85.47
2024-02-26T23:45:19.903Z,85.40
2024-02-26T23:47:46.393Z,84.69
2024-02-26T23:50:12.933Z,85.33
2024-02-26T23:52:39.330Z,85.30
2024-02-26T23:55:06.448Z,84.63
2024-02-26T23:57:33.689Z,84.85
